Time;durP1;ratioP1;P1;durP2;ratioP2;P2;SDS_P1;SDS_P2;PMS_P1;PMS_P2;Temp;Humidity;BMP_temperature;BMP_pressure;BME280_temperature;BME280_humidity;BME280_pressure;Samples;Min_cycle;Max_cycle;Signal;HPM_P1;HPM_P2
2022/08/23 00:01:21;;;;;;;3.73;1.60;;;15.80;93.80;;;;;;5032219;28;20760;-68
2022/08/23 00:03:46;;;;;;;5.50;1.80;;;15.80;94.20;;;;;;5033513;28;20619;-68
2022/08/23 00:06:13;;;;;;;4.63;1.60;;;15.70;94.30;;;;;;5034015;28;20420;-68
2022/08/23 00:08:40;;;;;;;5.03;2.07;;;15.70;94.20;;;;;;5033939;28;20186;-68
2022/08/23 00:11:22;;;;;;;4.17;2.00;;;15.60;94.30;;;;;;5033488;28;20870;-67
2022/08/23 00:13:48;;;;;;;10.50;1.97;;;15.50;94.70;;;;;;5033899;28;20409;-68
2022/08/23 00:16:13;;;;;;;6.60;2.60;;;15.40;95.30;;;;;;5033758;28;20896;-68
2022/08/23 00:18:40;;;;;;;4.57;2.10;;;15.40;95.90;;;;;;5033868;28;20668;-68
2022/08/23 00:21:06;;;;;;;3.80;2.03;;;15.30;95.40;;;;;;5033189;28;20170;-68
2022/08/23 00:23:31;;;;;;;9.93;1.53;;;15.30;95.60;;;;;;5032414;28;20463;-68
2022/08/23 00:26:01;;;;;;;3.00;2.07;;;15.20;95.70;;;;;;5032472;28;20202;-68
2022/08/23 00:28:27;;;;;;;6.40;2.33;;;15.20;96.00;;;;;;5032600;28;20189;-68
2022/08/23 00:30:53;;;;;;;6.37;2.40;;;15.20;96.00;;;;;;5032173;28;20840;-68
2022/08/23 00:33:20;;;;;;;3.80;2.33;;;15.20;96.10;;;;;;5031309;28;20440;-68
2022/08/23 00:35:46;;;;;;;6.00;2.27;;;15.20;96.40;;;;;;5032107;28;20174;-68
2022/08/23 00:38:11;;;;;;;7.63;2.10;;;15.10;96.60;;;;;;5032887;28;20782;-67
2022/08/23 00:40:37;;;;;;;5.13;2.53;;;15.10;96.60;;;;;;5033087;28;20189;-67
2022/08/23 00:48:55;;;;;;;5.93;2.90;;;15.10;96.90;;;;;;5032958;28;20417;-68
2022/08/23 00:51:35;;;;;;;5.87;2.30;;;15.10;97.10;;;;;;5032343;28;20421;-67
2022/08/23 00:54:01;;;;;;;5.20;2.30;;;15.00;97.20;;;;;;5032933;28;20764;-67
2022/08/23 00:56:32;;;;;;;3.87;1.60;;;14.90;97.80;;;;;;5032432;28;20471;-67
2022/08/23 00:58:58;;;;;;;3.43;1.60;;;14.90;97.50;;;;;;5032947;28;20917;-67
2022/08/23 01:01:24;;;;;;;3.50;1.77;;;14.80;97.50;;;;;;5032059;28;20428;-68
2022/08/23 01:03:54;;;;;;;6.00;2.53;;;14.80;97.60;;;;;;5032617;28;20224;-68
2022/08/23 01:06:29;;;;;;;4.03;2.13;;;14.80;97.70;;;;;;5032665;28;20416;-67
2022/08/23 01:08:59;;;;;;;5.30;2.07;;;14.80;97.90;;;;;;5032671;28;20463;-67
2022/08/23 01:11:57;;;;;;;3.13;1.50;;;14.70;97.90;;;;;;5032134;28;20405;-67
2022/08/23 01:14:37;;;;;;;6.27;2.10;;;14.70;98.20;;;;;;5032405;28;20436;-68
2022/08/23 01:17:23;;;;;;;7.30;2.20;;;14.70;98.40;;;;;;5032618;28;20404;-68
2022/08/23 01:20:02;;;;;;;3.00;1.43;;;14.60;98.20;;;;;;5032383;28;20425;-68
2022/08/23 01:22:40;;;;;;;2.93;1.70;;;14.50;98.30;;;;;;5032083;28;20448;-68
2022/08/23 01:25:09;;;;;;;3.30;2.00;;;14.40;98.50;;;;;;5032398;28;20936;-68
2022/08/23 01:27:37;;;;;;;4.77;1.90;;;14.30;98.70;;;;;;5032271;28;20898;-68
2022/08/23 01:30:06;;;;;;;3.97;2.40;;;14.30;98.70;;;;;;5032348;28;20423;-68
2022/08/23 01:32:34;;;;;;;4.37;1.87;;;14.30;99.10;;;;;;5031049;28;20913;-68
2022/08/23 01:35:00;;;;;;;5.13;1.90;;;14.30;99.00;;;;;;5032512;28;20471;-67
2022/08/23 01:37:26;;;;;;;3.10;2.00;;;14.30;99.20;;;;;;5032611;28;20413;-67
2022/08/23 01:39:51;;;;;;;4.27;2.00;;;14.30;99.40;;;;;;5032345;28;20174;-67
2022/08/23 01:42:17;;;;;;;5.10;2.50;;;14.30;99.70;;;;;;5032059;28;20545;-67
2022/08/23 01:44:43;;;;;;;6.20;1.83;;;14.30;99.70;;;;;;5032552;28;20182;-67
2022/08/23 01:47:08;;;;;;;4.23;1.87;;;14.30;99.80;;;;;;5032028;28;20409;-67
2022/08/23 01:49:34;;;;;;;2.77;1.30;;;14.30;99.60;;;;;;5032286;28;20677;-67
2022/08/23 01:52:00;;;;;;;2.37;1.60;;;14.20;99.90;;;;;;5047943;23;20222;-67
2022/08/23 01:54:25;;;;;;;6.80;2.47;;;14.20;99.90;;;;;;5032215;28;20642;-67
2022/08/23 01:56:51;;;;;;;11.93;1.97;;;14.10;99.90;;;;;;5039462;28;20189;-67
2022/08/23 01:59:17;;;;;;;6.93;2.27;;;14.00;99.90;;;;;;5032066;28;20946;-67
2022/08/23 02:01:42;;;;;;;5.63;1.93;;;14.00;99.90;;;;;;5031415;28;20636;-67
2022/08/23 02:04:08;;;;;;;3.30;2.10;;;14.00;99.90;;;;;;5031962;28;20181;-67
2022/08/23 02:06:34;;;;;;;3.40;2.10;;;14.00;99.90;;;;;;5032142;28;20175;-67
2022/08/23 02:09:00;;;;;;;3.03;1.70;;;14.00;99.90;;;;;;5032018;28;20553;-67
2022/08/23 02:11:27;;;;;;;3.67;1.87;;;14.00;99.90;;;;;;5031484;28;20174;-67
2022/08/23 02:13:57;;;;;;;3.50;1.70;;;14.00;99.90;;;;;;5032072;28;20414;-67
2022/08/23 02:16:32;;;;;;;4.60;1.70;;;14.00;99.90;;;;;;5031727;28;20449;-67
2022/08/23 02:19:01;;;;;;;8.00;2.07;;;14.00;99.90;;;;;;5032135;28;20437;-67
2022/08/23 02:21:30;;;;;;;2.20;1.50;;;13.90;99.90;;;;;;5031347;28;20798;-67
2022/08/23 02:23:59;;;;;;;4.27;2.00;;;13.80;99.90;;;;;;5031838;28;20424;-68
2022/08/23 02:26:25;;;;;;;3.10;1.67;;;13.80;99.90;;;;;;5035026;28;20413;-67
2022/08/23 02:28:53;;;;;;;5.20;2.03;;;13.80;99.90;;;;;;5035630;28;20420;-67
2022/08/23 02:31:20;;;;;;;2.90;1.57;;;13.90;99.90;;;;;;5034766;28;20175;-67
2022/08/23 02:33:45;;;;;;;3.87;2.10;;;13.90;99.90;;;;;;5034908;28;20457;-68
2022/08/23 02:36:11;;;;;;;3.77;1.93;;;13.90;99.90;;;;;;5035227;28;20448;-68
2022/08/23 02:38:38;;;;;;;3.77;2.03;;;13.90;99.90;;;;;;5035409;28;20178;-68
2022/08/23 02:41:03;;;;;;;9.93;2.07;;;13.80;99.90;;;;;;5034814;28;20889;-68
2022/08/23 02:43:29;;;;;;;4.07;2.03;;;13.80;99.90;;;;;;5035511;28;20456;-67
2022/08/23 02:45:55;;;;;;;4.33;1.57;;;13.80;99.90;;;;;;5035036;28;20205;-67
2022/08/23 02:48:21;;;;;;;7.10;1.57;;;13.70;99.90;;;;;;5035117;28;20174;-68
2022/08/23 02:50:48;;;;;;;4.70;2.30;;;13.60;99.90;;;;;;5054494;28;20508;-67
2022/08/23 02:53:14;;;;;;;3.40;1.90;;;13.50;99.90;;;;;;5054669;28;20269;-68
2022/08/23 02:55:44;;;;;;;3.80;2.07;;;13.50;99.50;;;;;;5054931;28;20459;-67
2022/08/23 02:58:09;;;;;;;5.70;2.13;;;13.40;99.50;;;;;;5055131;28;20408;-67
2022/08/23 03:00:37;;;;;;;4.30;2.47;;;13.40;99.90;;;;;;5054894;28;20459;-67
2022/08/23 03:03:03;;;;;;;5.70;2.30;;;13.40;99.90;;;;;;5054198;28;20275;-67
2022/08/23 03:05:30;;;;;;;5.20;2.20;;;13.40;99.90;;;;;;5055103;28;20404;-67
2022/08/23 03:07:56;;;;;;;4.50;1.77;;;13.40;99.90;;;;;;5054946;28;20427;-67
2022/08/23 03:10:21;;;;;;;3.03;1.80;;;13.40;99.90;;;;;;5054908;28;20412;-67
2022/08/23 03:12:47;;;;;;;3.53;1.63;;;13.30;99.90;;;;;;5054618;28;20996;-68
2022/08/23 03:15:13;;;;;;;4.07;2.33;;;13.40;99.90;;;;;;5055003;28;20184;-68
2022/08/23 03:17:38;;;;;;;4.07;1.90;;;13.50;99.90;;;;;;5054796;28;20174;-67
2022/08/23 03:20:05;;;;;;;3.13;1.57;;;13.70;99.90;;;;;;5054750;28;20611;-68
2022/08/23 03:22:31;;;;;;;2.67;1.87;;;13.60;99.90;;;;;;5054019;28;20233;-67
2022/08/23 03:24:56;;;;;;;4.27;1.87;;;13.60;99.90;;;;;;5054637;28;20925;-66
2022/08/23 03:27:22;;;;;;;6.00;1.83;;;13.50;99.90;;;;;;5054647;28;20614;-66
2022/08/23 03:29:48;;;;;;;3.10;1.70;;;13.50;99.90;;;;;;5054303;28;20619;-66
2022/08/23 03:32:13;;;;;;;4.80;2.27;;;13.50;99.90;;;;;;5053269;28;20610;-66
2022/08/23 03:34:39;;;;;;;3.93;1.50;;;13.50;99.90;;;;;;5054293;28;20186;-66
2022/08/23 03:37:05;;;;;;;3.03;1.50;;;13.40;99.90;;;;;;5054315;28;20209;-66
2022/08/23 03:39:31;;;;;;;4.93;1.97;;;13.30;99.90;;;;;;5054358;28;20784;-66
2022/08/23 03:41:57;;;;;;;5.90;1.50;;;13.30;99.90;;;;;;5053601;28;20206;-68
2022/08/23 03:44:22;;;;;;;2.90;1.57;;;13.20;99.90;;;;;;5054164;28;20182;-68
2022/08/23 03:46:49;;;;;;;5.50;1.77;;;13.20;99.90;;;;;;5054027;28;20224;-68
2022/08/23 03:49:15;;;;;;;3.70;1.87;;;13.20;99.90;;;;;;5053911;28;20261;-68
2022/08/23 03:51:41;;;;;;;3.63;2.23;;;13.30;99.90;;;;;;5053269;28;20960;-66
2022/08/23 03:54:06;;;;;;;4.67;1.80;;;13.30;99.90;;;;;;5054008;28;20645;-67
2022/08/23 03:56:37;;;;;;;4.37;1.80;;;13.30;99.90;;;;;;5053611;28;20245;-67
2022/08/23 03:59:10;;;;;;;4.20;1.97;;;13.30;99.90;;;;;;5054075;28;20174;-66
2022/08/23 04:01:36;;;;;;;6.60;1.80;;;13.30;99.90;;;;;;5053414;28;20411;-67
2022/08/23 04:04:02;;;;;;;4.27;1.87;;;13.30;99.90;;;;;;5053575;28;20877;-66
2022/08/23 04:06:28;;;;;;;3.60;1.60;;;13.30;99.90;;;;;;5053605;28;20617;-66
2022/08/23 04:08:55;;;;;;;2.80;1.80;;;13.20;99.90;;;;;;5053460;28;20219;-67
2022/08/23 04:11:21;;;;;;;4.83;2.13;;;13.20;99.90;;;;;;5053109;28;20413;-67
2022/08/23 04:13:47;;;;;;;2.80;1.37;;;13.10;99.90;;;;;;5053503;28;20435;-67
2022/08/23 04:16:13;;;;;;;3.10;2.07;;;13.10;99.90;;;;;;5053379;28;20412;-66
2022/08/23 04:18:39;;;;;;;3.30;1.87;;;13.20;99.90;;;;;;5053208;28;20264;-66
2022/08/23 04:21:11;;;;;;;8.90;2.27;;;13.10;99.90;;;;;;5053096;28;20182;-67
2022/08/23 04:23:38;;;;;;;4.60;2.80;;;13.10;99.90;;;;;;5053079;28;20486;-69
2022/08/23 04:26:05;;;;;;;11.17;3.40;;;13.10;99.90;;;;;;5053431;28;20405;-68
2022/08/23 04:28:31;;;;;;;4.37;2.70;;;13.10;99.90;;;;;;5053311;28;20416;-69
2022/08/23 04:30:59;;;;;;;4.33;2.50;;;13.10;99.90;;;;;;5053121;28;20432;-69
2022/08/23 04:33:25;;;;;;;5.03;2.50;;;13.00;99.90;;;;;;5052277;28;20424;-68
2022/08/23 04:35:51;;;;;;;4.00;2.27;;;12.90;99.90;;;;;;5053228;28;20416;-69
2022/08/23 04:38:17;;;;;;;3.53;2.00;;;13.00;99.90;;;;;;5053209;28;20762;-68
2022/08/23 04:43:27;;;;;;;3.57;2.03;;;13.00;99.90;;;;;;5053105;28;20216;-68
2022/08/23 04:45:53;;;;;;;9.13;2.60;;;13.00;99.90;;;;;;5053192;28;20440;-69
2022/08/23 04:48:18;;;;;;;4.70;2.10;;;13.00;99.90;;;;;;5052604;28;20178;-68
2022/08/23 04:50:44;;;;;;;6.30;2.20;;;13.10;99.90;;;;;;5052791;28;20180;-68
2022/08/23 04:53:10;;;;;;;6.03;2.10;;;13.00;99.90;;;;;;5051977;28;20276;-68
2022/08/23 04:55:36;;;;;;;3.20;1.93;;;13.00;99.90;;;;;;5052144;28;20256;-68
2022/08/23 04:58:03;;;;;;;8.10;2.40;;;13.10;99.90;;;;;;5051970;28;20527;-69
2022/08/23 05:00:29;;;;;;;4.40;2.17;;;13.10;99.90;;;;;;5051932;28;20895;-69
2022/08/23 05:02:55;;;;;;;4.20;2.70;;;13.10;99.90;;;;;;5051067;28;20542;-69
2022/08/23 05:05:20;;;;;;;6.17;1.80;;;13.10;99.90;;;;;;5051740;28;20178;-69
2022/08/23 05:07:46;;;;;;;5.10;1.80;;;13.20;99.90;;;;;;5051766;28;20412;-69
2022/08/23 05:10:14;;;;;;;4.77;1.97;;;13.20;99.90;;;;;;5051979;28;20276;-68
2022/08/23 05:12:40;;;;;;;5.10;2.30;;;13.30;99.90;;;;;;5051301;28;20181;-68
2022/08/23 05:15:08;;;;;;;2.67;1.80;;;13.40;99.90;;;;;;5051735;28;21215;-68
2022/08/23 05:17:34;;;;;;;3.90;2.33;;;13.40;99.90;;;;;;5051607;28;20770;-69
2022/08/23 05:20:00;;;;;;;3.10;1.90;;;13.40;99.90;;;;;;5051387;28;20419;-68
2022/08/23 05:22:26;;;;;;;5.43;2.00;;;13.50;99.90;;;;;;5051014;28;20669;-69
2022/08/23 05:24:51;;;;;;;4.43;1.90;;;13.50;99.90;;;;;;5051555;28;20495;-69
2022/08/23 05:27:17;;;;;;;7.83;2.00;;;13.60;99.90;;;;;;5051490;28;20219;-69
2022/08/23 05:29:42;;;;;;;4.40;2.40;;;13.60;99.90;;;;;;5051410;28;20261;-68
2022/08/23 05:32:09;;;;;;;7.43;2.87;;;13.70;99.90;;;;;;5050443;28;20218;-68
2022/08/23 05:34:36;;;;;;;4.20;2.53;;;13.80;99.90;;;;;;5051291;28;20618;-68
2022/08/23 05:37:01;;;;;;;6.30;2.73;;;13.90;99.90;;;;;;5051231;28;20432;-69
2022/08/23 05:39:27;;;;;;;6.13;2.33;;;14.00;99.90;;;;;;5051308;28;20470;-69
2022/08/23 05:41:53;;;;;;;4.50;2.60;;;14.00;99.90;;;;;;5050830;28;20602;-68
2022/08/23 05:44:19;;;;;;;4.60;2.30;;;14.10;99.90;;;;;;5051224;28;20470;-69
2022/08/23 05:46:45;;;;;;;4.87;2.37;;;14.20;99.90;;;;;;5051344;28;20178;-69
2022/08/23 05:49:11;;;;;;;3.70;2.03;;;14.30;99.90;;;;;;5051100;28;20170;-69
2022/08/23 05:51:36;;;;;;;7.30;2.90;;;14.40;99.90;;;;;;5011825;28;1110263;-68
2022/08/23 05:54:07;;;;;;;5.77;2.97;;;14.50;99.90;;;;;;5052156;28;20873;-69
2022/08/23 05:56:35;;;;;;;7.30;3.27;;;14.50;99.90;;;;;;5052065;28;20660;-68
2022/08/23 05:59:05;;;;;;;4.30;2.13;;;14.60;99.90;;;;;;5052002;28;20408;-69
2022/08/23 06:01:32;;;;;;;5.47;2.73;;;14.70;99.90;;;;;;5055024;28;20499;-68
2022/08/23 06:03:59;;;;;;;5.83;2.73;;;14.90;99.90;;;;;;5056145;28;20420;-68
2022/08/23 06:06:25;;;;;;;6.70;3.20;;;15.00;99.90;;;;;;5056114;28;20412;-68
2022/08/23 06:08:52;;;;;;;19.50;3.50;;;15.20;99.90;;;;;;5056114;28;20430;-68
2022/08/23 06:11:25;;;;;;;4.07;2.80;;;15.30;99.90;;;;;;5055605;28;20554;-69
2022/08/23 06:13:53;;;;;;;4.60;3.00;;;15.50;99.90;;;;;;5056066;28;20423;-69
2022/08/23 06:16:26;;;;;;;6.37;2.97;;;15.70;99.90;;;;;;5055908;28;20411;-68
2022/08/23 06:18:53;;;;;;;6.00;2.80;;;15.80;99.90;;;;;;5055994;28;20488;-70
2022/08/23 06:21:19;;;;;;;3.80;2.23;;;16.00;99.90;;;;;;5055167;28;20416;-69
2022/08/23 06:23:48;;;;;;;5.57;2.80;;;16.20;99.90;;;;;;5055679;28;20486;-69
2022/08/23 06:26:17;;;;;;;3.40;2.73;;;16.40;99.90;;;;;;5055528;28;20450;-67
2022/08/23 06:28:45;;;;;;;3.93;2.33;;;16.50;99.90;;;;;;5055628;28;20412;-67
2022/08/23 06:31:11;;;;;;;4.23;2.30;;;16.60;99.90;;;;;;5055142;28;20411;-69
2022/08/23 06:33:40;;;;;;;5.30;2.63;;;16.70;99.90;;;;;;5054670;28;20408;-68
2022/08/23 06:36:12;;;;;;;5.10;2.60;;;16.90;99.90;;;;;;5055415;28;20694;-67
2022/08/23 06:38:38;;;;;;;3.40;2.03;;;17.10;99.90;;;;;;5055428;28;20396;-66
2022/08/23 06:41:07;;;;;;;3.50;2.60;;;17.20;99.80;;;;;;5054972;28;20431;-67
2022/08/23 06:43:32;;;;;;;6.00;2.50;;;17.40;99.90;;;;;;5055331;28;20483;-67
2022/08/23 06:46:14;;;;;;;6.40;2.20;;;17.50;99.60;;;;;;5055323;28;20470;-67
2022/08/23 06:48:42;;;;;;;4.57;2.37;;;17.80;98.30;;;;;;5055077;28;20182;-69
2022/08/23 06:51:38;;;;;;;6.13;1.70;;;18.00;97.70;;;;;;5054842;28;21061;-67
2022/08/23 06:54:11;;;;;;;4.83;2.40;;;18.30;96.80;;;;;;5054234;28;20744;-67
2022/08/23 06:56:38;;;;;;;3.97;2.50;;;18.50;96.00;;;;;;5054905;28;20418;-69
2022/08/23 06:59:05;;;;;;;4.47;2.10;;;18.60;95.60;;;;;;5054359;28;20488;-70
2022/08/23 07:01:40;;;;;;;3.70;1.83;;;18.80;94.70;;;;;;5053840;28;20412;-69
2022/08/23 07:04:08;;;;;;;3.60;2.30;;;19.00;93.90;;;;;;5054363;28;20432;-68
2022/08/23 07:06:34;;;;;;;4.13;2.27;;;19.20;93.60;;;;;;5054330;28;20412;-68
2022/08/23 07:09:01;;;;;;;5.43;2.00;;;19.50;92.30;;;;;;5053976;28;20419;-68
2022/08/23 07:11:30;;;;;;;5.47;2.40;;;19.80;91.80;;;;;;5053371;28;20416;-69
2022/08/23 07:13:58;;;;;;;8.40;1.90;;;20.10;91.60;;;;;;5054128;28;20522;-68
2022/08/23 07:16:24;;;;;;;4.30;1.87;;;20.50;90.60;;;;;;5054324;28;20409;-69
2022/08/23 07:18:51;;;;;;;4.73;2.10;;;21.10;89.20;;;;;;5054085;28;20415;-68
2022/08/23 07:21:18;;;;;;;10.83;1.63;;;21.60;88.70;;;;;;5053696;28;20728;-69
2022/08/23 07:23:45;;;;;;;5.47;2.20;;;22.10;88.00;;;;;;5053699;28;20481;-69
2022/08/23 07:26:13;;;;;;;2.80;1.83;;;22.70;82.90;;;;;;5054110;28;20783;-68
2022/08/23 07:28:40;;;;;;;3.43;1.97;;;23.00;82.80;;;;;;5054111;28;20415;-69
2022/08/23 07:31:10;;;;;;;5.87;2.20;;;23.30;83.20;;;;;;5053583;28;20424;-69
2022/08/23 07:33:36;;;;;;;2.80;1.40;;;24.40;81.00;;;;;;5052858;28;20419;-69
2022/08/23 07:36:03;;;;;;;4.70;2.10;;;25.00;76.90;;;;;;5054201;28;20411;-69
2022/08/23 07:38:28;;;;;;;4.63;1.80;;;26.20;72.90;;;;;;5053943;28;20411;-69
2022/08/23 07:40:54;;;;;;;3.42;1.60;;;27.20;69.60;;;;;;5053723;28;20534;-69
2022/08/23 07:43:20;;;;;;;2.63;1.52;;;27.50;64.30;;;;;;5053829;28;20692;-69
2022/08/23 07:45:47;;;;;;;2.67;1.35;;;27.70;62.80;;;;;;5053832;28;20180;-69
2022/08/23 07:48:13;;;;;;;4.43;1.35;;;28.80;60.60;;;;;;5054026;28;20173;-69
2022/08/23 07:50:39;;;;;;;5.68;1.98;;;28.20;60.60;;;;;;5053629;28;20624;-69
2022/08/23 07:53:06;;;;;;;3.33;1.88;;;28.00;60.80;;;;;;5052923;28;20189;-69
2022/08/23 07:55:32;;;;;;;2.33;1.40;;;28.50;60.00;;;;;;5053127;28;20174;-69
2022/08/23 07:57:58;;;;;;;4.18;1.45;;;28.30;59.10;;;;;;5053249;28;20190;-69
2022/08/23 08:00:24;;;;;;;2.20;1.38;;;28.40;59.80;;;;;;5053215;28;20188;-69
2022/08/23 08:02:50;;;;;;;11.38;1.65;;;28.10;58.00;;;;;;5052762;28;20193;-69
2022/08/23 08:05:16;;;;;;;3.05;1.83;;;28.00;59.30;;;;;;5053150;28;20170;-69
2022/08/23 08:07:42;;;;;;;3.45;2.13;;;28.30;59.20;;;;;;5053302;28;20183;-69
2022/08/23 08:10:08;;;;;;;4.97;1.58;;;28.80;59.00;;;;;;5053151;28;20244;-69
2022/08/23 08:12:34;;;;;;;3.63;1.67;;;29.10;57.90;;;;;;5052808;28;20196;-69
2022/08/23 08:15:00;;;;;;;2.42;1.40;;;29.00;58.80;;;;;;5053074;28;20181;-70
2022/08/23 08:17:26;;;;;;;4.07;1.70;;;29.20;57.20;;;;;;5052899;28;20189;-69
2022/08/23 08:19:52;;;;;;;5.30;1.58;;;29.20;57.60;;;;;;5052944;28;20180;-69
2022/08/23 08:22:17;;;;;;;3.25;1.60;;;29.00;58.00;;;;;;5051640;28;20440;-69
2022/08/23 08:24:43;;;;;;;2.13;1.20;;;29.30;56.70;;;;;;5052736;28;20174;-69
2022/08/23 08:27:09;;;;;;;5.55;1.73;;;29.40;56.00;;;;;;5053171;28;20770;-70
2022/08/23 08:29:35;;;;;;;3.42;1.73;;;29.60;56.20;;;;;;5053104;28;20644;-70
2022/08/23 08:32:01;;;;;;;3.30;1.63;;;29.70;55.20;;;;;;5051206;28;20576;-70
2022/08/23 08:34:27;;;;;;;8.10;1.95;;;30.00;55.40;;;;;;5052657;28;20294;-70
2022/08/23 08:36:55;;;;;;;4.65;1.25;;;30.60;53.40;;;;;;5052597;28;20574;-69
2022/08/23 08:39:24;;;;;;;3.00;1.80;;;31.30;51.20;;;;;;5052446;28;20173;-69
2022/08/23 08:42:10;;;;;;;4.30;1.80;;;31.50;49.70;;;;;;5051942;28;20169;-69
2022/08/23 08:44:53;;;;;;;2.50;1.10;;;31.20;50.40;;;;;;5052433;28;20516;-69
2022/08/23 08:47:25;;;;;;;2.75;1.42;;;30.70;51.30;;;;;;5052449;28;20185;-70
2022/08/23 08:49:59;;;;;;;4.63;1.73;;;30.30;52.00;;;;;;5052356;28;20215;-70
2022/08/23 08:52:36;;;;;;;5.40;1.50;;;30.30;52.80;;;;;;5051836;28;20245;-70
2022/08/23 08:55:26;;;;;;;3.13;1.20;;;30.10;53.90;;;;;;5052345;28;20291;-70
2022/08/23 08:57:53;;;;;;;3.40;1.05;;;30.50;51.80;;;;;;5012704;28;20195;-69
2022/08/23 09:00:24;;;;;;;4.38;1.33;;;30.40;52.40;;;;;;5012509;28;20639;-69
2022/08/23 09:02:50;;;;;;;3.45;1.73;;;30.20;53.30;;;;;;5012111;28;20260;-69
2022/08/23 09:05:26;;;;;;;2.88;1.33;;;30.00;53.00;;;;;;5012499;28;20258;-70
2022/08/23 09:07:55;;;;;;;2.10;1.33;;;30.00;53.00;;;;;;5012540;28;20151;-70
2022/08/23 09:10:36;;;;;;;5.65;1.90;;;30.30;52.50;;;;;;5012238;28;20228;-70
2022/08/23 09:13:18;;;;;;;2.80;1.23;;;30.10;52.60;;;;;;5012033;28;20159;-70
2022/08/23 09:16:23;;;;;;;4.15;1.73;;;29.50;51.70;;;;;;5012365;28;20320;-70
2022/08/23 09:18:50;;;;;;;2.33;1.38;;;30.10;50.50;;;;;;5011642;28;20191;-70
2022/08/23 09:21:16;;;;;;;3.25;1.33;;;29.90;51.10;;;;;;5012089;28;20183;-70
2022/08/23 09:23:45;;;;;;;6.57;1.70;;;29.80;52.80;;;;;;5012269;28;20206;-70
2022/08/23 09:26:30;;;;;;;2.33;1.02;;;29.40;50.90;;;;;;5011353;28;20179;-69
2022/08/23 09:29:03;;;;;;;2.13;1.10;;;29.50;50.10;;;;;;5012766;28;20600;-70
2022/08/23 09:32:02;;;;;;;3.47;1.55;;;29.00;51.00;;;;;;5011412;28;20225;-69
2022/08/23 09:34:28;;;;;;;7.80;1.67;;;28.90;51.50;;;;;;5012437;28;20248;-69
2022/08/23 09:37:10;;;;;;;2.08;1.02;;;29.20;50.60;;;;;;5012520;28;20552;-69
2022/08/23 09:39:39;;;;;;;3.05;1.50;;;29.50;48.40;;;;;;5012656;28;20170;-70
2022/08/23 09:42:34;;;;;;;5.93;1.50;;;29.60;47.50;;;;;;5011665;28;20281;-70
2022/08/23 09:45:03;;;;;;;2.63;1.38;;;30.00;46.40;;;;;;5012658;28;20193;-69
2022/08/23 09:47:33;;;;;;;3.05;1.60;;;30.00;47.30;;;;;;5012358;28;20524;-69
2022/08/23 09:50:16;;;;;;;3.10;1.55;;;30.00;48.20;;;;;;5037935;28;20177;-71
2022/08/23 09:52:43;;;;;;;6.20;1.60;;;29.50;50.20;;;;;;5051366;28;20649;-70
2022/08/23 09:55:24;;;;;;;2.90;1.10;;;29.20;51.20;;;;;;5052178;28;20197;-70
2022/08/23 09:57:50;;;;;;;3.03;1.20;;;29.20;50.60;;;;;;5051832;28;20184;-70
2022/08/23 10:00:16;;;;;;;2.95;1.02;;;28.90;51.10;;;;;;5052005;28;20177;-69
2022/08/23 10:02:42;;;;;;;2.53;1.20;;;29.30;49.00;;;;;;5051083;28;20197;-69
2022/08/23 10:05:37;;;;;;;5.68;1.33;;;29.10;49.40;;;;;;5051649;28;20200;-69
2022/08/23 10:08:03;;;;;;;3.78;0.95;;;28.80;51.10;;;;;;5052070;28;20189;-70
2022/08/23 10:10:50;;;;;;;2.50;1.20;;;28.50;51.00;;;;;;5051988;28;20614;-69
2022/08/23 10:13:16;;;;;;;2.20;1.02;;;28.60;51.70;;;;;;5051546;28;20252;-69
2022/08/23 10:15:50;;;;;;;4.03;1.58;;;28.70;50.70;;;;;;5051708;28;20259;-70
2022/08/23 10:18:41;;;;;;;4.85;1.77;;;28.40;51.00;;;;;;5051919;28;20169;-69
2022/08/23 10:21:06;;;;;;;2.78;1.30;;;28.30;52.10;;;;;;5051478;28;20195;-70
2022/08/23 10:23:47;;;;;;;3.30;1.43;;;28.10;52.10;;;;;;5051595;28;20197;-70
2022/08/23 10:26:28;;;;;;;5.47;1.53;;;28.40;52.10;;;;;;5051655;28;20718;-69
2022/08/23 10:29:36;;;;;;;3.23;1.40;;;28.40;52.80;;;;;;5051794;28;20185;-69
2022/08/23 10:32:04;;;;;;;3.20;1.40;;;28.30;52.00;;;;;;5050101;28;20579;-70
2022/08/23 10:34:39;;;;;;;3.37;1.20;;;28.00;52.20;;;;;;5051712;28;20178;-70
2022/08/23 10:37:29;;;;;;;13.30;1.80;;;28.20;52.20;;;;;;5051825;28;20624;-69
2022/08/23 10:40:13;;;;;;;4.43;1.37;;;28.30;51.50;;;;;;5051691;28;20603;-70
2022/08/23 10:42:49;;;;;;;5.17;1.60;;;28.20;51.90;;;;;;5050042;28;20205;-69
2022/08/23 10:45:36;;;;;;;3.97;1.17;;;28.10;52.10;;;;;;5051816;28;20173;-69
2022/08/23 10:48:27;;;;;;;4.50;1.50;;;28.10;52.60;;;;;;5055240;28;20264;-69
2022/08/23 10:51:10;;;;;;;5.03;2.00;;;28.20;51.80;;;;;;5015501;28;20175;-69
2022/08/23 10:53:59;;;;;;;2.60;1.30;;;28.30;52.50;;;;;;5015548;28;20190;-70
2022/08/23 10:56:25;;;;;;;1.87;0.73;;;28.30;53.20;;;;;;5031530;28;20246;-70
2022/08/23 10:59:03;;;;;;;3.10;1.27;;;28.40;51.80;;;;;;5054872;28;20169;-69
2022/08/23 11:01:41;;;;;;;3.93;1.50;;;28.50;51.20;;;;;;5054680;28;20256;-69
2022/08/23 11:04:33;;;;;;;2.53;1.30;;;28.40;51.30;;;;;;5055076;28;20173;-69
2022/08/23 11:07:13;;;;;;;3.17;1.60;;;28.20;52.30;;;;;;5054682;28;20173;-70
2022/08/23 11:09:51;;;;;;;3.13;1.70;;;28.40;52.30;;;;;;5054780;28;20640;-70
2022/08/23 11:12:22;;;;;;;2.30;1.23;;;28.60;51.30;;;;;;5054242;28;20515;-70
2022/08/23 11:15:20;;;;;;;2.37;1.37;;;28.80;49.80;;;;;;5054572;28;20190;-70
2022/08/23 11:17:49;;;;;;;3.03;1.57;;;28.50;49.30;;;;;;5053963;28;20265;-70
2022/08/23 11:20:49;;;;;;;3.20;1.43;;;28.20;50.30;;;;;;5054653;28;20629;-69
2022/08/23 11:23:33;;;;;;;4.53;1.10;;;28.40;49.80;;;;;;5054124;28;20290;-70
2022/08/23 11:26:00;;;;;;;3.83;1.60;;;28.70;48.90;;;;;;5054651;28;20177;-70
2022/08/23 11:28:26;;;;;;;3.10;1.20;;;28.80;48.30;;;;;;5054150;28;20181;-69
2022/08/23 11:31:07;;;;;;;3.80;1.60;;;28.40;49.50;;;;;;5054312;28;20211;-70
2022/08/23 11:33:50;;;;;;;3.73;1.50;;;28.30;51.20;;;;;;5053417;28;20256;-71
2022/08/23 11:36:22;;;;;;;2.00;1.00;;;28.40;50.30;;;;;;5054244;28;20158;-70
2022/08/23 11:38:47;;;;;;;5.03;1.37;;;28.70;49.50;;;;;;5054322;28;20179;-70
2022/08/23 11:41:18;;;;;;;3.20;1.43;;;28.60;50.20;;;;;;5053799;28;20173;-70
2022/08/23 11:44:05;;;;;;;3.60;1.30;;;28.60;49.40;;;;;;5054209;28;20609;-70
2022/08/23 11:46:35;;;;;;;2.93;1.20;;;28.90;48.80;;;;;;5053449;28;20641;-70
2022/08/23 11:49:19;;;;;;;3.10;1.00;;;28.80;49.10;;;;;;5054176;28;20649;-70
2022/08/23 11:51:51;;;;;;;25.63;1.60;;;28.70;50.20;;;;;;5053470;28;20260;-70
2022/08/23 11:54:38;;;;;;;3.80;1.10;;;28.80;50.20;;;;;;5053939;28;20178;-69
2022/08/23 11:57:19;;;;;;;3.50;1.37;;;28.80;48.60;;;;;;5052962;28;20203;-70
2022/08/23 12:00:06;;;;;;;2.67;1.30;;;28.80;48.40;;;;;;5053705;28;20207;-70
2022/08/23 12:02:47;;;;;;;3.63;1.10;;;28.60;49.00;;;;;;5053189;28;20642;-70
2022/08/23 12:05:21;;;;;;;2.63;1.40;;;28.50;49.30;;;;;;5053841;28;20177;-70
2022/08/23 12:07:52;;;;;;;4.07;1.80;;;28.80;48.10;;;;;;5053929;28;20168;-70
2022/08/23 12:10:40;;;;;;;2.53;1.30;;;29.00;47.60;;;;;;5052763;28;20182;-70
2022/08/23 12:13:20;;;;;;;3.60;1.30;;;28.90;47.90;;;;;;5053413;28;20644;-70
2022/08/23 12:16:08;;;;;;;4.63;0.93;;;29.10;47.10;;;;;;5053925;28;20205;-70
2022/08/23 12:18:43;;;;;;;4.13;1.10;;;28.60;48.30;;;;;;5053660;28;20192;-69
2022/08/23 12:21:21;;;;;;;5.03;1.48;;;28.80;48.10;;;;;;5053369;28;20646;-69
2022/08/23 12:23:52;;;;;;;10.23;1.58;;;28.80;48.80;;;;;;5053505;28;20189;-69
2022/08/23 12:26:39;;;;;;;2.88;1.00;;;29.00;49.40;;;;;;5053634;28;20344;-69
2022/08/23 12:29:31;;;;;;;2.33;1.10;;;29.20;48.10;;;;;;5053462;28;20172;-69
2022/08/23 12:32:10;;;;;;;2.60;1.25;;;29.20;48.20;;;;;;5051940;28;20645;-70
2022/08/23 12:34:38;;;;;;;2.08;1.38;;;29.20;49.00;;;;;;5053429;28;20173;-69
2022/08/23 12:37:47;;;;;;;6.10;1.67;;;29.40;47.60;;;;;;5053135;28;20170;-69
2022/08/23 12:40:20;;;;;;;4.28;1.20;;;29.30;47.50;;;;;;5052913;28;20185;-70
2022/08/23 12:42:46;;;;;;;3.00;1.30;;;29.40;48.10;;;;;;5052502;28;20193;-70
2022/08/23 12:45:17;;;;;;;3.13;1.35;;;29.60;48.00;;;;;;5052924;28;20240;-69
2022/08/23 12:47:58;;;;;;;2.78;1.17;;;29.60;47.50;;;;;;5052985;28;20216;-69
2022/08/23 12:50:31;;;;;;;2.15;0.80;;;29.70;48.00;;;;;;5052961;28;20650;-70
2022/08/23 12:53:06;;;;;;;2.85;1.30;;;29.60;47.60;;;;;;5052471;28;20227;-69
2022/08/23 12:55:36;;;;;;;7.70;1.83;;;29.50;47.60;;;;;;5052960;28;20215;-69
2022/08/23 12:58:03;;;;;;;1.90;0.90;;;29.40;47.60;;;;;;5052665;28;20181;-70
2022/08/23 13:00:37;;;;;;;2.35;1.17;;;29.50;47.70;;;;;;5052656;28;20265;-70
2022/08/23 13:03:35;;;;;;;2.20;1.10;;;29.70;47.90;;;;;;5052259;28;20641;-70
2022/08/23 13:06:11;;;;;;;3.25;1.50;;;30.00;46.80;;;;;;5052750;28;20177;-69
2022/08/23 13:08:53;;;;;;;2.67;1.00;;;29.80;46.60;;;;;;5052157;28;20617;-70
2022/08/23 13:11:21;;;;;;;1.77;0.73;;;29.70;46.50;;;;;;5052147;28;20227;-69
2022/08/23 13:13:47;;;;;;;5.63;1.30;;;29.40;46.60;;;;;;5052359;28;20256;-69